Terminal Aerodrome Forecast
Issued by NWS Detroit/Pontiac, MI

Home | Current Version | Previous Version | Text Only | Print | Product List | Glossary On
Versions: 1 2 3 4 5 6 7 8 9 10 11 12 13 14 15 16
000
FTUS43 KDTX 270520
TAFFNT
TAF
KFNT 270520Z 2706/2806 33005KT P6SM SCT028 OVC040
     FM271400 28008KT P6SM BKN045 OVC120
     FM272100 32011G19KT P6SM BKN030 OVC045
     FM280300 30006KT P6SM SCT050=

USA.gov is the U.S. government's official web portal to all federal, state and local government web resources and services.